world map with SGX marked

SGX - Airport

This information may not be accurate or current and is not valid for navigation or flight planning. No warranty of fitness for any purpose is made or implied.

flag of Tanzania

Donate via PayPal

Additional information is available on the NEW Great Circle Mapper

Location
City:  Songea, Ruvuma, Tanzania
Name:Songea Airport
ICAO / IATA:HTSO / SGX

Details
Type:Airport (Aerodrome, Airfield)
Latitude:10°41'S (-10.683)
Longitude:35°35'E (35.583)
Elevation:3445 ft (1050 m)
Runways:unknown number
Longest:5331 ft (1625 m)

Time
Timezone:UTC+3 (DST+5)
Local Time:

Weather
METAR:HTSO  041300Z 09010KT 9999 BKN022 FEW023CB 28/20 Q1016
TAF:HTSO  (expired)

Related Locations
Nearby:
Farthest:ITO: 11498 mi / 18504 km
Hilo [Hilo Intl], Hawaii, HI, US

Find:

   beyond  
but within

Other Information
Maps:
Sources:

  


 


Great Circle Mapper   Great Circle Mapper
Great Circle Mapper FAQ   Great Circle Mapper FAQ
  Karl's Home Page
KLSē   KLSē Home
   GC on Facebook
Airlines of the World   Airlines of the World
Donate via PayPal


Copyright © 2004-2020, Karl L. Swartz. All rights reserved.
All trademarks mentioned herein belong to their respective owners.

Please see credits for attribution and copyright information.

Karl Swartz <karl@kls2.com>
  Powered by FreeBSD
Valid HTML 4.01!
Labeled with ICRA
hCard Microformat
Geo Microformat